Camas, Washington
Current Conditions -  °F | °C
As of 3:53 AM on Thursday 29 Jan 2015 (Local Time) from KTTD Reporting Station
Few Clouds Few Clouds  
Wind Chill: 36°   Ceiling: Unl
Heat Index: 45°   Visibility: 10mi
Dew Point: 37°   Wind: 28mph
Humidity: 74%   Direction: 90°E
Pressure: 30.3"   Gusts: 36mph
Location:  45.59°N, 122.4°W
Report Text: KTTD 291153Z AUTO 09024G31KT 10SM FEW110 07/03 A3030 RMK AO2 PK WND 09033/1135 SLP261 70001 T00720028 10094 20072 58003
Loading
Personal Weather Stations






























Interactive Weather Map New forecast layout! Learn more

10-Day Weather Forecast

Advertisements
Track Severe Weather on mobile